Аэропорт
Сыктывкар (UUYY)

 UUYY / SCW
ЗЦ Санкт-Петербург
Сыктывкар (UUYY)
Сыктывкар (UUYY)
 61.64700, 50.84510  / 342 ft

 UUYY 211000Z 03004MPS 9999 BKN018 08/05 Q1033 R01/19//55 NOSIG RMK QFE765/1021
 TAF AMD UUYY 210410Z 2104/2203 02003G08MPS 9999 BKN005 BKN015CB TEMPO 2104/2106 03006MPS 2100 -SHRA BR BKN003 BKN012CB BECMG 2106/2107 BKN011 BKN015CB TEMPO 2118/2203 1000 BR BKN004 BKN012CB
показать схемы

Аэродром "Сыктывкар" (UUYY)

Рекомендованные сценарии:

FS2004 от Aniter

P3D/FSX от Aniter 

Схемы:

АИП

Средства связи ОВД:

UUYY_R_APP - Сивкар-Круг - 124.600

UUYY_TWR - Сивкар-Старт - 124.600

UUYY_ATIS - Сивкар-АТИС (русский, английский) - 126.600



2017 © VATRUS division